Time;durP1;ratioP1;P1;durP2;ratioP2;P2;SDS_P1;SDS_P2;PMS_P1;PMS_P2;Temp;Humidity;BMP_temperature;BMP_pressure;BME280_temperature;BME280_humidity;BME280_pressure;Samples;Min_cycle;Max_cycle;Signal;HPM_P1;HPM_P2
2023/04/24 00:01:29;;;;;;;4.43;4.10;;;12.00;99.90;;;;;;5025781;28;20229;-69
2023/04/24 00:03:59;;;;;;;5.33;4.93;;;12.00;99.90;;;;;;5022181;28;20190;-70
2023/04/24 00:06:32;;;;;;;4.73;4.33;;;12.00;99.90;;;;;;5021582;28;20185;-71
2023/04/24 00:09:02;;;;;;;4.73;4.23;;;12.00;99.90;;;;;;5019674;28;20442;-70
2023/04/24 00:11:28;;;;;;;4.50;3.50;;;12.00;99.90;;;;;;5024209;28;20414;-72
2023/04/24 00:13:54;;;;;;;10.03;4.30;;;11.90;99.90;;;;;;5021707;28;20453;-71
2023/04/24 00:16:19;;;;;;;5.07;4.27;;;11.90;99.90;;;;;;5021636;28;20176;-71
2023/04/24 00:18:45;;;;;;;5.60;4.90;;;11.90;99.90;;;;;;5022278;28;20200;-71
2023/04/24 00:21:11;;;;;;;6.37;5.03;;;11.90;99.90;;;;;;5023951;28;20208;-71
2023/04/24 00:23:36;;;;;;;6.03;4.67;;;11.90;99.90;;;;;;5022265;28;20259;-71
2023/04/24 00:26:02;;;;;;;4.37;3.37;;;11.80;99.90;;;;;;5020373;28;20176;-72
2023/04/24 00:28:28;;;;;;;4.13;3.73;;;11.80;99.90;;;;;;5024700;28;20193;-71
2023/04/24 00:30:54;;;;;;;5.37;4.87;;;11.80;99.90;;;;;;5020371;28;20246;-71
2023/04/24 00:33:20;;;;;;;6.47;4.73;;;11.80;99.90;;;;;;5021244;28;20586;-70
2023/04/24 00:35:45;;;;;;;4.73;4.13;;;11.80;99.90;;;;;;5022038;28;20184;-71
2023/04/24 00:38:11;;;;;;;4.33;3.93;;;11.80;99.90;;;;;;5016062;28;20511;-72
2023/04/24 00:40:37;;;;;;;5.23;4.73;;;11.80;99.90;;;;;;5013785;28;20209;-72
2023/04/24 00:43:02;;;;;;;4.90;4.07;;;11.80;99.90;;;;;;5025248;28;20184;-71
2023/04/24 00:45:28;;;;;;;4.93;4.43;;;11.80;99.90;;;;;;5022745;28;20180;-71
2023/04/24 00:47:54;;;;;;;5.30;4.13;;;11.80;99.90;;;;;;5022353;28;20678;-69
2023/04/24 00:50:21;;;;;;;4.17;3.77;;;11.80;99.90;;;;;;5025155;28;20711;-72
2023/04/24 00:52:47;;;;;;;5.80;5.33;;;11.70;99.90;;;;;;5021498;28;20210;-71
2023/04/24 00:55:12;;;;;;;5.73;4.30;;;11.70;99.90;;;;;;5026598;28;20921;-71
2023/04/24 00:57:38;;;;;;;4.90;4.40;;;11.70;99.90;;;;;;5018582;28;20654;-70
2023/04/24 01:00:07;;;;;;;4.90;4.50;;;11.70;99.90;;;;;;5002694;28;20211;-71
2023/04/24 01:02:34;;;;;;;4.83;4.13;;;11.70;99.90;;;;;;5002293;28;20761;-69
2023/04/24 01:05:01;;;;;;;5.00;4.57;;;11.70;99.90;;;;;;5021542;28;20422;-70
2023/04/24 01:07:27;;;;;;;4.43;4.03;;;11.70;99.90;;;;;;5023500;28;20412;-70
2023/04/24 01:09:52;;;;;;;6.10;5.10;;;11.70;99.90;;;;;;5022042;28;20770;-71
2023/04/24 01:12:19;;;;;;;5.00;4.50;;;11.70;99.90;;;;;;5025780;28;20425;-70
2023/04/24 01:14:45;;;;;;;5.17;4.67;;;11.60;99.90;;;;;;5020665;28;20650;-68
2023/04/24 01:17:11;;;;;;;4.80;4.40;;;11.70;99.90;;;;;;5008691;28;20449;-70
2023/04/24 01:19:37;;;;;;;5.00;4.50;;;11.70;99.90;;;;;;5018165;28;20475;-71
2023/04/24 01:22:08;;;;;;;5.20;4.17;;;11.70;99.90;;;;;;5018254;28;20418;-71
2023/04/24 01:24:34;;;;;;;6.00;5.10;;;11.70;99.90;;;;;;5024336;28;20804;-70
2023/04/24 01:27:01;;;;;;;5.33;4.77;;;11.70;99.90;;;;;;5017178;28;20450;-73
2023/04/24 01:29:26;;;;;;;5.37;4.87;;;11.70;99.90;;;;;;5022953;28;20452;-71
2023/04/24 01:31:52;;;;;;;5.53;4.93;;;11.60;99.90;;;;;;5019160;28;20474;-70
2023/04/24 01:34:18;;;;;;;5.20;4.67;;;11.60;99.90;;;;;;5017187;28;20547;-72
2023/04/24 01:36:46;;;;;;;5.77;3.90;;;11.60;99.90;;;;;;5019734;28;20176;-71
2023/04/24 01:39:12;;;;;;;5.90;5.30;;;11.60;99.90;;;;;;5017848;28;20208;-70
2023/04/24 01:41:37;;;;;;;5.30;4.80;;;11.60;99.90;;;;;;5023814;28;20419;-70
2023/04/24 01:44:03;;;;;;;4.80;4.30;;;11.60;99.90;;;;;;5017026;28;20462;-72
2023/04/24 01:46:31;;;;;;;4.53;4.20;;;11.70;99.90;;;;;;5004127;28;20205;-71
2023/04/24 01:48:59;;;;;;;5.50;4.93;;;11.70;99.90;;;;;;5021195;28;20235;-71
2023/04/24 01:51:25;;;;;;;6.33;4.83;;;11.80;99.90;;;;;;5021825;28;20414;-72
2023/04/24 01:53:50;;;;;;;4.70;4.30;;;11.80;99.90;;;;;;5020774;28;20437;-71
2023/04/24 01:56:17;;;;;;;6.17;5.03;;;11.80;99.90;;;;;;5022393;28;20175;-71
2023/04/24 01:58:43;;;;;;;5.90;5.17;;;11.80;99.90;;;;;;5021532;28;20577;-70
2023/04/24 02:01:09;;;;;;;6.20;5.70;;;11.80;99.90;;;;;;5020976;28;20461;-70
2023/04/24 02:03:34;;;;;;;5.87;5.30;;;11.80;99.90;;;;;;5022595;28;20436;-71
2023/04/24 02:06:00;;;;;;;5.43;4.90;;;11.80;99.90;;;;;;5021407;28;20171;-71
2023/04/24 02:08:25;;;;;;;5.50;5.00;;;11.80;99.90;;;;;;5005151;28;20199;-70
2023/04/24 02:10:51;;;;;;;5.73;5.13;;;11.80;99.90;;;;;;5021647;28;20198;-71
2023/04/24 02:13:17;;;;;;;5.13;4.73;;;11.70;99.90;;;;;;5022826;28;20548;-71
2023/04/24 02:15:42;;;;;;;5.87;5.23;;;11.80;99.90;;;;;;5021711;28;20614;-70
2023/04/24 02:18:08;;;;;;;5.57;5.07;;;11.70;99.90;;;;;;5021088;28;20191;-72
2023/04/24 02:20:35;;;;;;;9.00;5.87;;;11.70;99.90;;;;;;5022642;28;20219;-70
2023/04/24 02:23:01;;;;;;;6.07;5.10;;;11.70;99.90;;;;;;5021605;28;20193;-70
2023/04/24 02:25:26;;;;;;;6.70;5.30;;;11.70;99.90;;;;;;5026192;28;20415;-71
2023/04/24 02:27:52;;;;;;;5.50;4.97;;;11.70;99.90;;;;;;5024906;28;20470;-71
2023/04/24 02:30:17;;;;;;;7.03;5.23;;;11.70;99.90;;;;;;5026902;28;20175;-71
2023/04/24 02:32:43;;;;;;;5.80;5.30;;;11.70;99.90;;;;;;5026307;28;20306;-71
2023/04/24 02:35:09;;;;;;;6.87;6.00;;;11.70;99.90;;;;;;5020779;28;20179;-70
2023/04/24 02:37:35;;;;;;;5.63;4.63;;;11.60;99.90;;;;;;5019119;28;20769;-71
2023/04/24 02:40:00;;;;;;;5.13;4.63;;;11.70;99.90;;;;;;5021842;28;20248;-71
2023/04/24 02:42:26;;;;;;;5.90;5.40;;;11.70;99.90;;;;;;5021457;28;20180;-70
2023/04/24 02:44:51;;;;;;;6.33;5.70;;;11.70;99.90;;;;;;5020600;28;20294;-71
2023/04/24 02:47:17;;;;;;;6.77;5.43;;;11.70;99.90;;;;;;5020203;28;20185;-72
2023/04/24 02:49:42;;;;;;;5.83;5.23;;;11.70;99.90;;;;;;5025603;28;20200;-71
2023/04/24 02:52:08;;;;;;;6.60;6.00;;;11.70;99.90;;;;;;5018731;28;20183;-70
2023/04/24 02:54:34;;;;;;;5.57;5.07;;;11.70;99.90;;;;;;5025916;28;20667;-72
2023/04/24 02:57:00;;;;;;;6.03;5.43;;;11.80;99.90;;;;;;5018999;28;20185;-69
2023/04/24 02:59:28;;;;;;;6.20;5.60;;;11.80;99.90;;;;;;5013608;28;20311;-71
2023/04/24 03:01:54;;;;;;;5.87;5.30;;;11.80;99.90;;;;;;5023715;28;20476;-70
2023/04/24 03:04:20;;;;;;;11.33;6.33;;;11.80;99.90;;;;;;5022268;28;20415;-71
2023/04/24 03:06:46;;;;;;;6.20;5.60;;;11.80;99.90;;;;;;5029960;28;20179;-72
2023/04/24 03:09:11;;;;;;;6.67;5.83;;;11.80;99.90;;;;;;5025609;28;20628;-71
2023/04/24 03:11:37;;;;;;;6.10;5.50;;;11.80;99.90;;;;;;5025353;28;20179;-71
2023/04/24 03:14:02;;;;;;;7.87;7.13;;;11.80;99.90;;;;;;5025046;28;20259;-71
2023/04/24 03:16:28;;;;;;;6.50;5.07;;;11.90;99.90;;;;;;5018217;28;20552;-71
2023/04/24 03:18:54;;;;;;;7.00;5.37;;;11.90;99.90;;;;;;5022917;28;20223;-71
2023/04/24 03:21:19;;;;;;;5.43;4.93;;;11.90;99.90;;;;;;5022499;28;20222;-71
2023/04/24 03:23:45;;;;;;;6.40;5.80;;;11.90;99.90;;;;;;5023424;28;20638;-71
2023/04/24 03:26:11;;;;;;;7.10;6.40;;;11.90;99.90;;;;;;5026218;28;20175;-71
2023/04/24 03:28:36;;;;;;;5.77;5.27;;;11.90;99.90;;;;;;5016581;28;20238;-71
2023/04/24 03:31:03;;;;;;;6.17;5.67;;;12.00;99.90;;;;;;5029052;28;20774;-71
2023/04/24 03:33:29;;;;;;;6.83;5.60;;;12.00;99.90;;;;;;5024349;28;20266;-71
2023/04/24 03:35:54;;;;;;;8.63;7.90;;;12.00;99.90;;;;;;5021290;28;21011;-72
2023/04/24 03:38:20;;;;;;;6.60;6.00;;;12.00;99.90;;;;;;5024934;28;20296;-71
2023/04/24 03:40:45;;;;;;;7.10;6.30;;;12.00;99.90;;;;;;5022372;28;20196;-71
2023/04/24 03:43:11;;;;;;;7.33;6.53;;;12.00;99.90;;;;;;5025196;28;20241;-71
2023/04/24 03:45:37;;;;;;;6.57;5.17;;;12.00;99.90;;;;;;5023670;28;20167;-71
2023/04/24 03:48:03;;;;;;;6.47;5.80;;;12.00;99.90;;;;;;5021104;28;20238;-71
2023/04/24 03:50:29;;;;;;;7.30;5.60;;;12.00;99.90;;;;;;5025058;28;20601;-71
2023/04/24 03:52:54;;;;;;;6.77;6.03;;;12.00;99.90;;;;;;5020986;28;20501;-70
2023/04/24 03:55:20;;;;;;;6.50;4.80;;;12.00;99.90;;;;;;5024665;28;20414;-71
2023/04/24 03:57:45;;;;;;;7.27;6.60;;;12.00;99.90;;;;;;5021827;28;20196;-71
2023/04/24 04:00:12;;;;;;;6.03;5.43;;;12.00;99.90;;;;;;5024426;28;20211;-70
2023/04/24 04:02:37;;;;;;;7.40;6.40;;;12.00;99.90;;;;;;5023101;28;20176;-72
2023/04/24 04:05:03;;;;;;;7.10;6.27;;;12.10;99.90;;;;;;5020754;28;20440;-71
2023/04/24 04:07:29;;;;;;;5.87;5.30;;;12.10;99.90;;;;;;5017391;28;20211;-72
2023/04/24 04:09:55;;;;;;;8.43;6.03;;;12.10;99.90;;;;;;5025753;28;20433;-72
2023/04/24 04:12:21;;;;;;;6.50;5.80;;;12.10;99.90;;;;;;5006913;28;20426;-71
2023/04/24 04:14:46;;;;;;;6.67;6.03;;;12.10;99.90;;;;;;5022408;28;20184;-73
2023/04/24 04:17:12;;;;;;;6.43;5.83;;;12.10;99.90;;;;;;5023956;28;20180;-70
2023/04/24 04:19:37;;;;;;;6.97;6.27;;;12.10;99.90;;;;;;5029898;28;20226;-73
2023/04/24 04:22:03;;;;;;;5.93;5.30;;;12.20;99.90;;;;;;5024492;28;20639;-71
2023/04/24 04:24:29;;;;;;;7.07;6.37;;;12.20;99.90;;;;;;5022609;28;20215;-70
2023/04/24 04:26:57;;;;;;;5.60;5.00;;;12.20;99.90;;;;;;5026002;28;20211;-72
2023/04/24 04:29:23;;;;;;;6.10;5.30;;;12.20;99.90;;;;;;5019528;28;20555;-71
2023/04/24 04:31:49;;;;;;;6.70;6.00;;;12.20;99.90;;;;;;5021593;28;20506;-73
2023/04/24 04:34:15;;;;;;;7.53;5.10;;;12.20;99.90;;;;;;5021445;28;20226;-68
2023/04/24 04:36:41;;;;;;;6.57;5.67;;;12.20;99.90;;;;;;5022828;28;20176;-69
2023/04/24 04:39:07;;;;;;;5.50;4.93;;;12.30;99.90;;;;;;5025820;28;20598;-72
2023/04/24 04:41:34;;;;;;;5.33;4.83;;;12.20;99.90;;;;;;5021992;28;20439;-68
2023/04/24 04:44:00;;;;;;;5.17;4.67;;;12.30;99.90;;;;;;5024642;28;20939;-71
2023/04/24 04:46:26;;;;;;;5.67;5.17;;;12.30;99.90;;;;;;5026084;28;20475;-71
2023/04/24 04:48:54;;;;;;;6.67;5.20;;;12.30;99.90;;;;;;5025084;28;20869;-70
2023/04/24 04:51:20;;;;;;;5.87;5.27;;;12.30;99.90;;;;;;5008487;28;20172;-70
2023/04/24 04:53:45;;;;;;;6.57;5.93;;;12.30;99.90;;;;;;5021984;28;20416;-68
2023/04/24 04:56:11;;;;;;;5.00;4.47;;;12.30;99.90;;;;;;5024830;28;20900;-74
2023/04/24 04:58:36;;;;;;;5.67;4.97;;;12.40;99.90;;;;;;5021711;28;20286;-71
2023/04/24 05:01:02;;;;;;;5.23;4.50;;;12.40;99.90;;;;;;5023815;28;20195;-70
2023/04/24 05:03:28;;;;;;;5.47;4.97;;;12.40;99.90;;;;;;5026057;28;20180;-70
2023/04/24 05:05:53;;;;;;;5.50;4.90;;;12.50;99.90;;;;;;5024686;28;20203;-70
2023/04/24 05:08:19;;;;;;;5.20;4.43;;;12.50;99.90;;;;;;5024429;28;20270;-70
2023/04/24 05:10:45;;;;;;;4.97;4.50;;;12.50;99.90;;;;;;5028482;28;20183;-69
2023/04/24 05:13:10;;;;;;;4.30;3.70;;;12.60;99.90;;;;;;5021621;28;20427;-70
2023/04/24 05:15:36;;;;;;;4.37;3.93;;;12.60;99.90;;;;;;5015065;28;20263;-70
2023/04/24 05:18:02;;;;;;;3.97;3.53;;;12.70;99.90;;;;;;5028495;28;20196;-68
2023/04/24 05:20:28;;;;;;;6.77;4.17;;;12.70;99.90;;;;;;5022077;28;20208;-69
2023/04/24 05:22:54;;;;;;;4.13;3.53;;;12.70;99.90;;;;;;5029052;28;20784;-71
2023/04/24 05:25:19;;;;;;;4.03;3.60;;;12.80;99.90;;;;;;5020442;28;20183;-70
2023/04/24 05:27:46;;;;;;;5.40;3.97;;;12.80;99.90;;;;;;5022584;28;20189;-70
2023/04/24 05:30:12;;;;;;;3.70;3.40;;;12.80;99.90;;;;;;5022501;28;20175;-70
2023/04/24 05:32:37;;;;;;;4.20;3.80;;;13.10;99.90;;;;;;5018522;28;20435;-69
2023/04/24 05:35:06;;;;;;;4.60;4.03;;;13.30;99.90;;;;;;5024148;28;20418;-70
2023/04/24 05:37:32;;;;;;;4.40;3.10;;;13.60;99.90;;;;;;5012520;28;20198;-70
2023/04/24 05:39:58;;;;;;;3.23;2.93;;;13.70;99.90;;;;;;5022524;28;20960;-70
2023/04/24 05:42:24;;;;;;;4.30;3.00;;;13.70;99.90;;;;;;5020479;28;20686;-70
2023/04/24 05:44:50;;;;;;;4.07;3.67;;;13.80;99.90;;;;;;5017146;28;20539;-70
2023/04/24 05:47:16;;;;;;;2.50;2.30;;;13.90;99.90;;;;;;5019822;28;20433;-70
2023/04/24 05:49:41;;;;;;;2.43;2.30;;;14.10;99.90;;;;;;5010516;28;20583;-71
2023/04/24 05:52:08;;;;;;;2.63;2.43;;;14.00;99.90;;;;;;5021473;28;20192;-69
2023/04/24 05:54:34;;;;;;;2.37;2.17;;;14.00;99.90;;;;;;5014462;28;20217;-69
2023/04/24 05:57:04;;;;;;;3.60;1.80;;;14.10;99.90;;;;;;5020855;28;20933;-69
2023/04/24 05:59:29;;;;;;;2.47;2.27;;;14.20;99.90;;;;;;5020156;28;20460;-69
2023/04/24 06:01:55;;;;;;;2.30;2.10;;;14.40;99.90;;;;;;5017367;28;20912;-68
2023/04/24 06:04:20;;;;;;;3.30;3.00;;;14.70;99.90;;;;;;5018530;28;20713;-70
2023/04/24 06:06:50;;;;;;;3.60;3.03;;;15.00;99.90;;;;;;5017850;28;20172;-70
2023/04/24 06:09:16;;;;;;;2.43;1.80;;;15.20;99.90;;;;;;5022041;28;20194;-70
2023/04/24 06:11:42;;;;;;;2.53;2.07;;;15.30;99.90;;;;;;5020126;28;20465;-69
2023/04/24 06:14:08;;;;;;;3.30;2.93;;;15.70;99.90;;;;;;5021552;28;20489;-69
2023/04/24 06:16:33;;;;;;;2.60;2.20;;;15.90;99.90;;;;;;5014032;28;20188;-70
2023/04/24 06:18:59;;;;;;;4.00;2.30;;;16.10;99.90;;;;;;5017111;28;20515;-70
2023/04/24 06:21:25;;;;;;;3.53;2.00;;;16.30;99.90;;;;;;5021405;28;20255;-70
2023/04/24 06:23:51;;;;;;;2.10;1.90;;;16.10;99.90;;;;;;5020055;28;20602;-69
2023/04/24 06:26:16;;;;;;;2.90;2.00;;;15.90;99.90;;;;;;5018220;28;20498;-70
2023/04/24 06:28:42;;;;;;;2.47;2.20;;;15.50;99.90;;;;;;5020434;28;20201;-69
2023/04/24 06:31:08;;;;;;;2.37;1.57;;;15.40;99.90;;;;;;5021191;28;20628;-70
2023/04/24 06:33:33;;;;;;;1.70;1.60;;;15.50;99.90;;;;;;5027842;28;20180;-70
2023/04/24 06:35:59;;;;;;;2.20;2.00;;;15.90;99.90;;;;;;5016791;28;20219;-70
2023/04/24 06:38:25;;;;;;;3.53;1.93;;;16.00;99.90;;;;;;5027932;28;20206;-69
2023/04/24 06:40:51;;;;;;;2.37;1.90;;;17.00;99.90;;;;;;5027728;28;20295;-69
2023/04/24 06:43:16;;;;;;;2.50;2.07;;;17.70;99.90;;;;;;5025815;28;20930;-68
2023/04/24 06:45:43;;;;;;;3.03;2.77;;;18.50;99.90;;;;;;5019997;28;20184;-69
2023/04/24 06:48:09;;;;;;;3.43;3.13;;;18.80;99.90;;;;;;5029470;28;20201;-70
2023/04/24 06:50:35;;;;;;;1.73;1.60;;;18.70;99.90;;;;;;5029912;28;20453;-69
2023/04/24 06:53:00;;;;;;;2.13;1.80;;;19.00;99.90;;;;;;5021502;28;20826;-69
2023/04/24 06:55:26;;;;;;;2.67;1.43;;;18.70;99.90;;;;;;5031262;28;20194;-71
2023/04/24 06:57:52;;;;;;;1.30;1.20;;;19.80;99.90;;;;;;5023073;28;20275;-71
2023/04/24 07:00:17;;;;;;;4.30;1.83;;;19.70;99.90;;;;;;5030321;28;20195;-69
2023/04/24 07:02:43;;;;;;;2.60;1.67;;;19.40;99.90;;;;;;5024749;28;20173;-70
2023/04/24 07:05:09;;;;;;;2.30;1.47;;;20.20;99.90;;;;;;5029445;28;20172;-71
2023/04/24 07:07:37;;;;;;;1.87;1.40;;;19.70;99.90;;;;;;5028290;28;20648;-71
2023/04/24 07:10:04;;;;;;;1.53;1.33;;;20.60;99.90;;;;;;5023095;28;20291;-70
2023/04/24 07:12:29;;;;;;;1.20;1.10;;;20.20;99.90;;;;;;5024868;28;20493;-70
2023/04/24 07:14:55;;;;;;;1.73;1.40;;;19.10;99.90;;;;;;5028385;28;20556;-70
2023/04/24 07:17:20;;;;;;;1.00;1.00;;;19.00;99.90;;;;;;5030568;28;20183;-70
2023/04/24 07:19:46;;;;;;;1.80;1.00;;;20.00;99.90;;;;;;5031379;28;20688;-69
2023/04/24 07:22:16;;;;;;;4.00;1.37;;;19.90;99.90;;;;;;5031820;28;20222;-68
2023/04/24 07:24:43;;;;;;;2.10;1.50;;;19.90;99.90;;;;;;5024361;28;20162;-68
2023/04/24 07:27:09;;;;;;;1.83;1.00;;;20.30;99.90;;;;;;5022595;28;20963;-70
2023/04/24 07:29:35;;;;;;;2.33;1.00;;;20.30;99.90;;;;;;5021506;28;20529;-70
2023/04/24 07:32:01;;;;;;;1.73;1.20;;;19.90;99.90;;;;;;5021182;28;20506;-70
2023/04/24 07:34:26;;;;;;;1.10;0.93;;;19.70;99.90;;;;;;5023973;28;20417;-70
2023/04/24 07:36:52;;;;;;;2.03;1.07;;;19.20;99.90;;;;;;5019951;28;20270;-68
2023/04/24 07:39:18;;;;;;;1.10;1.00;;;19.50;99.90;;;;;;5024487;28;20191;-69
2023/04/24 07:41:44;;;;;;;1.00;0.93;;;19.90;99.90;;;;;;5022930;28;20187;-68
2023/04/24 07:44:09;;;;;;;1.43;0.90;;;19.30;99.90;;;;;;5022494;28;20435;-69
2023/04/24 07:46:35;;;;;;;0.80;0.80;;;19.70;99.90;;;;;;5028424;28;20526;-68
2023/04/24 07:49:01;;;;;;;1.20;1.00;;;19.70;99.90;;;;;;5022240;28;20201;-69
2023/04/24 07:51:27;;;;;;;2.40;1.00;;;19.70;99.90;;;;;;5018751;28;20253;-68
2023/04/24 07:53:54;;;;;;;1.37;0.90;;;19.50;99.90;;;;;;5021188;28;20197;-68
2023/04/24 07:56:20;;;;;;;1.43;1.00;;;20.10;99.90;;;;;;5019369;28;20854;-72
2023/04/24 07:58:46;;;;;;;1.10;0.97;;;20.00;99.90;;;;;;5026013;28;20430;-70
2023/04/24 08:01:11;;;;;;;2.20;1.00;;;19.60;99.90;;;;;;5027440;28;20960;-69
2023/04/24 08:03:37;;;;;;;1.50;1.00;;;20.20;99.90;;;;;;5014667;28;20179;-70
2023/04/24 08:06:04;;;;;;;1.03;0.90;;;20.60;99.90;;;;;;5020305;28;20274;-70
2023/04/24 08:08:30;;;;;;;1.40;1.20;;;21.50;99.90;;;;;;5024319;28;20438;-71
2023/04/24 08:10:55;;;;;;;0.83;0.83;;;21.70;99.90;;;;;;5020845;28;20445;-69
2023/04/24 08:13:21;;;;;;;1.60;1.00;;;21.80;99.90;;;;;;5023008;28;20184;-69
2023/04/24 08:15:46;;;;;;;2.83;1.43;;;21.60;99.90;;;;;;5012262;28;20206;-71
2023/04/24 08:18:13;;;;;;;1.00;0.90;;;21.40;99.90;;;;;;5026767;28;20611;-69
2023/04/24 08:20:39;;;;;;;1.57;0.70;;;21.20;99.90;;;;;;5016706;28;20290;-71
2023/04/24 08:23:05;;;;;;;1.93;0.80;;;20.90;99.90;;;;;;5026874;28;20498;-70
2023/04/24 08:25:30;;;;;;;3.80;0.90;;;21.70;99.90;;;;;;5022064;28;20760;-70
2023/04/24 08:27:56;;;;;;;0.90;0.80;;;21.20;99.90;;;;;;5021681;28;20203;-70
2023/04/24 08:30:22;;;;;;;1.27;0.80;;;20.90;99.90;;;;;;5022873;28;20176;-69
2023/04/24 08:32:47;;;;;;;2.00;0.70;;;20.80;99.90;;;;;;5022541;28;20240;-70
2023/04/24 08:35:13;;;;;;;1.00;0.80;;;19.90;99.90;;;;;;5024435;28;20711;-70
2023/04/24 08:37:39;;;;;;;0.80;0.80;;;19.70;99.90;;;;;;5005287;28;20238;-69
2023/04/24 08:40:11;;;;;;;0.70;0.70;;;20.20;99.90;;;;;;5026338;28;20513;-70
2023/04/24 08:42:38;;;;;;;1.33;0.97;;;20.50;99.90;;;;;;5019033;28;20175;-70
2023/04/24 08:45:03;;;;;;;1.47;1.03;;;20.00;99.90;;;;;;5022217;28;20407;-69
2023/04/24 08:47:30;;;;;;;1.37;0.90;;;19.30;99.90;;;;;;5017224;28;20417;-69
2023/04/24 08:49:56;;;;;;;2.10;1.10;;;19.40;99.90;;;;;;5027238;28;20620;-68
2023/04/24 08:52:22;;;;;;;1.70;1.27;;;19.20;99.90;;;;;;5023112;28;20509;-69
2023/04/24 08:54:48;;;;;;;0.70;0.60;;;20.20;99.90;;;;;;5021698;28;20435;-69
2023/04/24 08:57:15;;;;;;;2.43;1.50;;;20.40;99.90;;;;;;5022409;28;20936;-68
2023/04/24 08:59:41;;;;;;;5.07;2.53;;;20.00;99.90;;;;;;5013687;28;20277;-69
2023/04/24 09:02:10;;;;;;;0.80;0.80;;;19.60;99.90;;;;;;5024694;28;20415;-69
2023/04/24 09:04:37;;;;;;;2.10;1.40;;;19.30;99.90;;;;;;5011001;28;20509;-71
2023/04/24 09:07:03;;;;;;;4.50;2.30;;;19.00;99.90;;;;;;5026629;28;20421;-68
2023/04/24 09:09:32;;;;;;;2.23;1.80;;;19.00;99.90;;;;;;5029081;28;20458;-68
2023/04/24 09:11:58;;;;;;;1.33;1.23;;;19.40;99.90;;;;;;5024495;28;20411;-68
2023/04/24 09:14:24;;;;;;;1.33;0.80;;;19.90;99.90;;;;;;5016842;28;20445;-70
2023/04/24 09:16:50;;;;;;;0.90;0.67;;;19.40;99.90;;;;;;5025226;28;20454;-69
2023/04/24 09:19:16;;;;;;;2.67;1.20;;;19.10;99.90;;;;;;5018197;28;20530;-68
2023/04/24 09:21:45;;;;;;;1.43;1.20;;;19.00;99.90;;;;;;5003551;28;20196;-69
2023/04/24 09:24:24;;;;;;;1.70;0.90;;;19.00;99.90;;;;;;5012847;28;20222;-70
2023/04/24 09:27:01;;;;;;;1.20;1.10;;;18.40;99.90;;;;;;5013191;28;20442;-69
2023/04/24 09:29:28;;;;;;;1.00;0.70;;;18.40;99.90;;;;;;5028573;28;20466;-69
2023/04/24 09:31:54;;;;;;;0.80;0.70;;;18.30;99.90;;;;;;5021641;28;20418;-69
2023/04/24 09:34:24;;;;;;;1.23;1.00;;;18.20;99.90;;;;;;5024091;28;20437;-70
2023/04/24 09:36:50;;;;;;;4.07;1.57;;;18.20;99.90;;;;;;5014442;28;20427;-70
2023/04/24 09:39:16;;;;;;;1.37;1.10;;;18.40;99.90;;;;;;5010692;28;20606;-70
2023/04/24 09:41:59;;;;;;;1.63;1.53;;;18.80;99.90;;;;;;5024217;28;20461;-69
2023/04/24 09:44:27;;;;;;;1.43;1.00;;;18.50;99.90;;;;;;5030596;28;20815;-69
2023/04/24 09:46:58;;;;;;;1.70;0.90;;;18.40;99.90;;;;;;5025865;28;20911;-71
2023/04/24 09:49:25;;;;;;;2.73;1.73;;;18.40;99.90;;;;;;5024129;28;20456;-71
2023/04/24 09:51:52;;;;;;;1.40;1.20;;;18.40;99.90;;;;;;5026500;28;20421;-71
2023/04/24 09:54:24;;;;;;;1.70;1.03;;;18.50;99.90;;;;;;4999155;28;20531;-69
2023/04/24 09:56:50;;;;;;;1.73;1.43;;;18.50;99.90;;;;;;5008763;28;20419;-69
2023/04/24 09:59:18;;;;;;;1.90;1.27;;;18.80;99.90;;;;;;5020551;28;20464;-70
2023/04/24 10:01:44;;;;;;;2.10;1.27;;;18.60;99.90;;;;;;5019685;28;20444;-69
2023/04/24 10:04:21;;;;;;;4.50;3.30;;;19.10;99.90;;;;;;5025070;28;20485;-68
2023/04/24 10:06:50;;;;;;;2.70;1.80;;;19.10;99.90;;;;;;5019032;28;20429;-70
2023/04/24 10:09:18;;;;;;;4.57;2.60;;;19.30;99.90;;;;;;5021764;28;20928;-70
2023/04/24 10:11:46;;;;;;;6.20;1.50;;;19.30;99.90;;;;;;5018868;28;20909;-69
2023/04/24 10:14:25;;;;;;;1.30;1.10;;;19.50;99.90;;;;;;5025840;28;20403;-69
2023/04/24 10:16:54;;;;;;;3.03;1.60;;;19.70;99.90;;;;;;5021658;28;20403;-70
2023/04/24 10:19:20;;;;;;;2.30;1.10;;;20.10;99.90;;;;;;5023884;28;20557;-69
2023/04/24 10:21:47;;;;;;;1.20;1.10;;;20.40;99.90;;;;;;5024755;28;20961;-68
2023/04/24 10:24:17;;;;;;;2.50;1.83;;;20.30;99.90;;;;;;5010797;28;20170;-68
2023/04/24 10:26:44;;;;;;;1.43;0.93;;;20.10;99.90;;;;;;5027781;28;20417;-68
2023/04/24 10:29:15;;;;;;;0.83;0.73;;;20.00;99.90;;;;;;5033789;28;20427;-69
2023/04/24 10:31:41;;;;;;;1.03;0.90;;;20.40;99.90;;;;;;5020494;28;20421;-69
2023/04/24 10:34:08;;;;;;;1.33;0.90;;;20.20;99.90;;;;;;5021459;28;20435;-69
2023/04/24 10:36:36;;;;;;;1.27;0.80;;;20.50;99.90;;;;;;5018079;28;20512;-67
2023/04/24 10:39:06;;;;;;;1.80;1.10;;;20.20;99.90;;;;;;5025891;28;20442;-70
2023/04/24 10:41:31;;;;;;;2.33;1.10;;;19.80;99.90;;;;;;5028494;28;20805;-68
2023/04/24 10:44:12;;;;;;;1.50;1.40;;;19.60;99.90;;;;;;5028592;28;20481;-69
2023/04/24 10:46:39;;;;;;;1.30;0.83;;;19.10;99.90;;;;;;5029881;28;20178;-69
2023/04/24 10:49:09;;;;;;;2.30;1.00;;;18.70;99.90;;;;;;5017404;28;20483;-69
2023/04/24 10:52:06;;;;;;;1.17;0.90;;;18.20;99.90;;;;;;5027725;28;20418;-69
2023/04/24 10:54:40;;;;;;;1.27;1.10;;;18.20;99.90;;;;;;5012904;28;20419;-70
2023/04/24 10:57:24;;;;;;;0.80;0.80;;;18.10;99.90;;;;;;5029328;28;20422;-68
2023/04/24 11:00:12;;;;;;;1.10;1.00;;;18.30;99.90;;;;;;5021485;28;20492;-68
2023/04/24 11:02:40;;;;;;;1.33;1.00;;;18.20;99.90;;;;;;5012265;28;20427;-68
2023/04/24 11:05:06;;;;;;;1.70;1.33;;;18.30;99.90;;;;;;5023683;28;20402;-67
2023/04/24 11:08:09;;;;;;;1.40;1.00;;;18.20;99.90;;;;;;5023351;28;20772;-67
2023/04/24 11:10:38;;;;;;;0.80;0.80;;;18.50;99.90;;;;;;5019225;28;20423;-68
2023/04/24 11:13:04;;;;;;;5.23;1.20;;;19.20;99.90;;;;;;5029143;28;20459;-69
2023/04/24 11:15:30;;;;;;;2.90;1.10;;;19.40;99.90;;;;;;5014891;28;20783;-68
2023/04/24 11:17:56;;;;;;;1.87;1.10;;;19.30;99.90;;;;;;5026655;28;20201;-69
2023/04/24 11:20:25;;;;;;;1.00;0.90;;;19.40;99.90;;;;;;5007431;28;20202;-69
2023/04/24 11:22:54;;;;;;;1.20;1.10;;;19.60;99.90;;;;;;5014530;28;20429;-68
2023/04/24 11:25:22;;;;;;;2.53;0.97;;;19.50;99.90;;;;;;5026602;28;20406;-69
2023/04/24 11:27:49;;;;;;;2.80;1.20;;;19.40;99.90;;;;;;5012204;28;20475;-69
2023/04/24 11:30:20;;;;;;;0.90;0.70;;;19.80;99.90;;;;;;5024546;28;20418;-70
2023/04/24 11:32:50;;;;;;;0.80;0.80;;;19.30;99.90;;;;;;5028961;28;20824;-69
2023/04/24 11:35:18;;;;;;;1.87;1.23;;;19.30;99.90;;;;;;5025224;28;20407;-69
2023/04/24 11:37:46;;;;;;;3.30;1.10;;;19.40;99.90;;;;;;5020226;28;20463;-69
2023/04/24 11:40:15;;;;;;;1.30;1.10;;;19.00;99.90;;;;;;5027389;28;20481;-69
2023/04/24 11:42:43;;;;;;;0.90;0.80;;;18.60;99.90;;;;;;5017408;28;20412;-68
2023/04/24 11:45:11;;;;;;;1.73;0.97;;;18.20;99.90;;;;;;5023812;28;20886;-68
2023/04/24 11:47:36;;;;;;;1.20;1.10;;;17.90;99.90;;;;;;5025824;28;21186;-68
2023/04/24 11:50:04;;;;;;;1.90;1.27;;;17.60;99.90;;;;;;5023631;28;20890;-68
2023/04/24 11:52:31;;;;;;;2.00;1.10;;;17.80;99.90;;;;;;5026352;28;20189;-68
2023/04/24 11:54:57;;;;;;;0.90;0.80;;;17.70;99.90;;;;;;5029689;28;20403;-69
2023/04/24 11:57:26;;;;;;;0.83;0.83;;;17.90;99.90;;;;;;5024457;28;20952;-69
2023/04/24 11:59:52;;;;;;;1.03;0.90;;;18.10;99.90;;;;;;5022094;28;20447;-69
2023/04/24 12:02:25;;;;;;;1.23;0.90;;;18.00;99.90;;;;;;5023609;28;20510;-70
2023/04/24 12:04:54;;;;;;;1.00;0.90;;;18.00;99.90;;;;;;5019949;28;20173;-68
2023/04/24 12:07:20;;;;;;;1.60;1.10;;;18.10;99.90;;;;;;5023933;28;20511;-68
2023/04/24 12:09:48;;;;;;;1.60;0.80;;;18.20;99.90;;;;;;5021449;28;20661;-69
2023/04/24 12:12:15;;;;;;;1.13;0.97;;;18.30;99.90;;;;;;5022021;28;20465;-68
2023/04/24 12:14:48;;;;;;;1.20;1.07;;;18.60;99.90;;;;;;5027755;28;20484;-69
2023/04/24 12:17:14;;;;;;;1.63;0.90;;;18.60;99.90;;;;;;5018086;28;20429;-69
2023/04/24 12:19:45;;;;;;;1.10;1.00;;;18.50;99.90;;;;;;5027332;28;20446;-68
2023/04/24 12:22:11;;;;;;;2.13;1.47;;;18.30;99.90;;;;;;5023175;28;20623;-69
2023/04/24 12:25:00;;;;;;;1.20;1.10;;;17.90;99.90;;;;;;5021827;28;20441;-69
2023/04/24 12:27:26;;;;;;;1.07;0.97;;;17.80;99.90;;;;;;5008105;28;20275;-68
2023/04/24 12:30:04;;;;;;;1.13;1.00;;;17.70;99.90;;;;;;5025936;28;20455;-68
2023/04/24 12:32:30;;;;;;;1.10;1.00;;;17.80;99.90;;;;;;5021168;28;20479;-69
2023/04/24 12:34:56;;;;;;;0.80;0.80;;;18.00;99.90;;;;;;5026985;28;20412;-69
2023/04/24 12:37:25;;;;;;;1.27;1.10;;;18.00;99.90;;;;;;5010341;28;20286;-69
2023/04/24 12:40:08;;;;;;;1.40;1.30;;;18.00;99.90;;;;;;5025466;28;20454;-69
2023/04/24 12:42:35;;;;;;;1.60;1.40;;;18.50;99.90;;;;;;5028021;28;20422;-70
2023/04/24 12:45:05;;;;;;;1.17;0.97;;;18.60;99.90;;;;;;5022494;28;20409;-69
2023/04/24 12:47:31;;;;;;;1.07;0.97;;;18.60;99.90;;;;;;5021757;28;20449;-69